createdAt,value
2018-11-29T00:00:20.263Z,38.48
2018-11-29T00:02:48.675Z,43.63
2018-11-29T00:05:16.950Z,43.92
2018-11-29T00:07:45.143Z,39.65
2018-11-29T00:10:13.435Z,35.95
2018-11-29T00:12:41.619Z,52.30
2018-11-29T00:15:11.964Z,40.48
2018-11-29T00:17:40.183Z,46.60
2018-11-29T00:20:12.424Z,41.20
2018-11-29T00:22:40.850Z,38.20
2018-11-29T00:25:10.974Z,49.90
2018-11-29T00:27:39.288Z,39.08
2018-11-29T00:30:09.818Z,42.03
2018-11-29T00:32:38.198Z,45.15
2018-11-29T00:35:07.841Z,40.98
2018-11-29T00:37:36.176Z,48.68
2018-11-29T00:40:06.336Z,47.80
2018-11-29T00:42:34.518Z,42.27
2018-11-29T00:45:02.728Z,50.63
2018-11-29T00:47:31.011Z,41.25
2018-11-29T00:49:59.378Z,45.23
2018-11-29T00:52:27.563Z,39.38
2018-11-29T00:54:55.753Z,42.35
2018-11-29T00:57:23.950Z,41.23
2018-11-29T00:59:52.135Z,43.15
2018-11-29T01:02:20.311Z,36.85
2018-11-29T01:04:48.506Z,44.58
2018-11-29T01:07:16.851Z,54.35
2018-11-29T01:09:45.070Z,45.45
2018-11-29T01:12:13.259Z,46.98
2018-11-29T01:14:41.489Z,50.95
2018-11-29T01:17:09.676Z,45.90
2018-11-29T01:19:37.934Z,52.13
2018-11-29T01:22:06.115Z,42.05
2018-11-29T01:24:34.286Z,45.03
2018-11-29T01:27:02.455Z,41.37
2018-11-29T01:29:30.822Z,48.95
2018-11-29T01:31:59.007Z,43.58
2018-11-29T01:34:27.179Z,45.65
2018-11-29T01:36:55.330Z,45.05
2018-11-29T01:39:23.550Z,52.17
2018-11-29T01:41:51.715Z,49.90
2018-11-29T01:44:19.999Z,42.23
2018-11-29T01:46:48.166Z,38.80
2018-11-29T01:49:16.324Z,45.12
2018-11-29T01:51:44.495Z,47.85
2018-11-29T01:54:12.673Z,48.60
2018-11-29T01:56:40.863Z,48.35
2018-11-29T01:59:09.032Z,40.25
2018-11-29T02:01:37.282Z,51.00
2018-11-29T02:04:05.478Z,42.23
2018-11-29T02:06:33.668Z,41.37
2018-11-29T02:09:01.964Z,50.80
2018-11-29T02:11:30.111Z,51.13
2018-11-29T02:13:58.318Z,45.55
2018-11-29T02:16:26.720Z,42.55
2018-11-29T02:18:54.867Z,49.80
2018-11-29T02:21:23.111Z,42.45
2018-11-29T02:23:51.287Z,44.60
2018-11-29T02:26:19.745Z,45.40
2018-11-29T02:28:47.978Z,37.05
2018-11-29T02:31:16.162Z,48.42
2018-11-29T02:33:44.302Z,49.73
2018-11-29T02:36:12.495Z,57.20
2018-11-29T02:38:40.716Z,50.78
2018-11-29T02:41:08.909Z,40.58
2018-11-29T02:43:37.111Z,46.73
2018-11-29T02:46:05.523Z,48.50
2018-11-29T02:48:33.677Z,38.65
2018-11-29T02:51:01.877Z,37.08
2018-11-29T02:53:30.043Z,40.12
2018-11-29T02:55:58.232Z,40.33
2018-11-29T02:58:26.930Z,51.70
2018-11-29T03:00:55.091Z,41.35
2018-11-29T03:03:23.259Z,38.92
2018-11-29T03:05:51.412Z,40.03
2018-11-29T03:08:19.654Z,39.53
2018-11-29T03:10:47.830Z,42.45
2018-11-29T03:13:16.007Z,39.63
2018-11-29T03:15:44.168Z,48.48
2018-11-29T03:18:12.471Z,49.88
2018-11-29T03:20:40.621Z,43.63
2018-11-29T03:23:08.833Z,40.45
2018-11-29T03:25:37.040Z,45.28
2018-11-29T03:28:05.426Z,37.85
2018-11-29T03:30:33.607Z,41.35
2018-11-29T03:33:01.785Z,40.33
2018-11-29T03:35:30.192Z,25.55
2018-11-29T03:37:58.394Z,49.50
2018-11-29T03:40:26.679Z,39.85
2018-11-29T03:42:54.872Z,41.65
2018-11-29T03:45:23.106Z,43.85
2018-11-29T03:47:51.276Z,43.10
2018-11-29T03:50:19.461Z,42.55
2018-11-29T03:52:47.648Z,38.75
2018-11-29T03:55:15.839Z,46.83
2018-11-29T03:57:44.175Z,40.33
2018-11-29T04:00:17.343Z,37.48
2018-11-29T04:02:46.382Z,42.62
2018-11-29T04:05:14.576Z,40.78
2018-11-29T04:07:42.790Z,40.33
2018-11-29T04:10:12.073Z,43.25
2018-11-29T04:12:40.381Z,41.90
2018-11-29T04:15:09.771Z,31.65
2018-11-29T04:17:40.997Z,33.75
2018-11-29T04:20:10.692Z,44.88
2018-11-29T04:22:38.875Z,37.98
2018-11-29T04:25:08.568Z,48.40
2018-11-29T04:27:36.914Z,42.23
2018-11-29T04:30:05.684Z,47.13
2018-11-29T04:32:33.875Z,37.67
2018-11-29T04:35:02.043Z,42.85
2018-11-29T04:37:30.265Z,45.65
2018-11-29T04:39:58.417Z,39.38
2018-11-29T04:42:26.593Z,37.50
2018-11-29T04:44:54.792Z,42.65
2018-11-29T04:47:22.966Z,48.00
2018-11-29T04:49:51.119Z,47.48
2018-11-29T04:52:19.360Z,47.85
2018-11-29T04:54:47.790Z,31.95
2018-11-29T04:57:15.965Z,48.20
2018-11-29T04:59:44.212Z,37.10
2018-11-29T05:02:12.551Z,44.58
2018-11-29T05:04:41.105Z,43.60
2018-11-29T05:07:09.278Z,43.30
2018-11-29T05:09:37.597Z,42.83
2018-11-29T05:12:05.981Z,33.38
2018-11-29T05:14:34.255Z,41.68
2018-11-29T05:17:02.415Z,42.05
2018-11-29T05:19:30.611Z,35.35
2018-11-29T05:21:58.789Z,41.30
2018-11-29T05:24:27.079Z,44.10
2018-11-29T05:26:55.247Z,38.23
2018-11-29T05:29:23.423Z,46.58
2018-11-29T05:31:51.623Z,52.08
2018-11-29T05:34:19.803Z,41.25
2018-11-29T05:36:47.959Z,44.35
2018-11-29T05:39:16.295Z,44.73
2018-11-29T05:41:44.534Z,42.83
2018-11-29T05:44:12.698Z,39.63
2018-11-29T05:46:41.009Z,49.93
2018-11-29T05:49:09.170Z,39.53
2018-11-29T05:51:37.362Z,43.17
2018-11-29T05:54:05.931Z,47.30
2018-11-29T05:56:34.095Z,50.05
2018-11-29T05:59:02.286Z,49.75
2018-11-29T06:01:33.109Z,44.80
2018-11-29T06:04:01.314Z,42.00
2018-11-29T06:06:29.484Z,54.03
2018-11-29T06:08:57.688Z,48.23
2018-11-29T06:11:25.858Z,37.63
2018-11-29T06:13:54.007Z,42.38
2018-11-29T06:16:22.320Z,41.33
2018-11-29T06:18:50.591Z,54.25
2018-11-29T06:21:18.863Z,48.10
2018-11-29T06:23:47.033Z,40.30
2018-11-29T06:26:15.230Z,46.20
2018-11-29T06:28:43.551Z,49.95
2018-11-29T06:31:11.804Z,43.13
2018-11-29T06:33:39.995Z,51.92
2018-11-29T06:36:08.217Z,47.30
2018-11-29T06:38:36.369Z,52.50
2018-11-29T06:41:04.699Z,46.45
2018-11-29T06:43:32.850Z,50.67
2018-11-29T06:46:01.487Z,42.08
2018-11-29T06:48:29.638Z,43.08
2018-11-29T06:50:57.806Z,54.27
2018-11-29T06:53:31.415Z,54.70
2018-11-29T06:55:59.644Z,45.30
2018-11-29T06:58:27.848Z,54.53
2018-11-29T07:00:56.025Z,49.55
2018-11-29T07:03:28.752Z,46.28
2018-11-29T07:05:52.362Z,51.42
2018-11-29T07:08:20.835Z,41.02
2018-11-29T07:10:49.515Z,42.62
2018-11-29T07:13:17.704Z,37.40
2018-11-29T07:15:45.896Z,47.17
2018-11-29T07:18:14.143Z,49.55
2018-11-29T07:20:42.450Z,45.83
2018-11-29T07:23:10.642Z,52.60
2018-11-29T07:25:38.804Z,47.33
2018-11-29T07:28:06.960Z,37.42
2018-11-29T07:30:35.167Z,41.20
2018-11-29T07:33:03.341Z,56.85
2018-11-29T07:35:31.490Z,45.43
2018-11-29T07:37:59.878Z,35.38
2018-11-29T07:40:28.098Z,42.58
2018-11-29T07:42:56.259Z,50.45
2018-11-29T07:45:24.456Z,45.43
2018-11-29T07:47:52.704Z,44.27
2018-11-29T07:50:22.043Z,44.70
2018-11-29T07:52:50.195Z,48.92
2018-11-29T07:55:19.442Z,47.90
2018-11-29T07:57:48.723Z,50.05
2018-11-29T08:00:17.130Z,46.60
2018-11-29T08:02:45.398Z,49.03
2018-11-29T08:05:14.541Z,54.18
2018-11-29T08:07:47.457Z,52.03
2018-11-29T08:10:15.146Z,46.42
2018-11-29T08:12:43.358Z,42.08
2018-11-29T08:15:12.826Z,42.85
2018-11-29T08:17:40.979Z,40.50
2018-11-29T08:20:14.640Z,43.33
2018-11-29T08:22:42.829Z,39.70
2018-11-29T08:25:11.403Z,45.88
2018-11-29T08:27:39.590Z,36.75
2018-11-29T08:30:11.187Z,53.50
2018-11-29T08:32:39.388Z,42.83
2018-11-29T08:35:08.736Z,49.33
2018-11-29T08:37:36.980Z,46.68
2018-11-29T08:40:10.233Z,56.02
2018-11-29T08:42:38.395Z,50.48
2018-11-29T08:45:08.263Z,40.12
2018-11-29T08:47:36.413Z,41.58
2018-11-29T08:50:05.075Z,44.03
2018-11-29T08:52:33.238Z,47.27
2018-11-29T08:55:01.454Z,33.85
2018-11-29T08:57:29.635Z,41.77
2018-11-29T08:59:57.816Z,43.23
2018-11-29T09:02:25.999Z,50.48
2018-11-29T09:04:54.185Z,47.00
2018-11-29T09:07:22.408Z,39.53
2018-11-29T09:09:50.587Z,49.70
2018-11-29T09:12:18.773Z,47.67
2018-11-29T09:14:46.938Z,40.48
2018-11-29T09:17:15.142Z,41.58
2018-11-29T09:19:43.338Z,43.55
2018-11-29T09:22:11.495Z,44.70
2018-11-29T09:24:39.745Z,45.95
2018-11-29T09:27:07.940Z,42.23
2018-11-29T09:29:36.142Z,42.58
2018-11-29T09:32:04.327Z,33.90
2018-11-29T09:34:32.510Z,42.17
2018-11-29T09:37:00.677Z,37.28
2018-11-29T09:39:28.879Z,39.73
2018-11-29T09:41:57.087Z,39.42
2018-11-29T09:44:25.225Z,45.67
2018-11-29T09:46:53.438Z,42.65
2018-11-29T09:49:21.594Z,44.45
2018-11-29T09:51:49.756Z,35.15
2018-11-29T09:54:17.912Z,35.75
2018-11-29T09:56:46.111Z,28.80
2018-11-29T09:59:14.255Z,36.30
2018-11-29T10:01:42.411Z,39.78
2018-11-29T10:04:10.595Z,44.33
2018-11-29T10:06:38.771Z,62.78
2018-11-29T10:09:09.429Z,47.05
2018-11-29T10:11:37.568Z,39.67
2018-11-29T10:14:05.751Z,35.68
2018-11-29T10:16:33.942Z,37.70
2018-11-29T10:19:02.107Z,34.45
2018-11-29T10:21:30.407Z,46.23
2018-11-29T10:23:58.583Z,39.35
2018-11-29T10:26:26.794Z,38.73
2018-11-29T10:28:54.987Z,36.87
2018-11-29T10:31:23.160Z,37.50
2018-11-29T10:33:51.308Z,34.35
2018-11-29T10:36:19.478Z,42.60
2018-11-29T10:38:47.650Z,39.23
2018-11-29T10:41:15.842Z,36.20
2018-11-29T10:43:44.007Z,41.15
2018-11-29T10:46:12.191Z,38.92
2018-11-29T10:48:40.351Z,34.27
2018-11-29T10:51:08.575Z,40.60
2018-11-29T10:53:38.115Z,39.35
2018-11-29T10:56:04.944Z,36.33
2018-11-29T10:58:33.120Z,34.10
2018-11-29T11:01:06.779Z,34.80
2018-11-29T11:03:34.930Z,42.88
2018-11-29T11:06:03.102Z,35.60
2018-11-29T11:08:31.275Z,33.13
2018-11-29T11:11:03.718Z,33.05
2018-11-29T11:13:31.898Z,33.08
2018-11-29T11:16:00.095Z,31.93
2018-11-29T11:18:28.256Z,30.82
2018-11-29T11:20:56.431Z,33.33
2018-11-29T11:23:24.597Z,34.43
2018-11-29T11:25:52.771Z,43.00
2018-11-29T11:28:20.959Z,39.60
2018-11-29T11:30:49.123Z,32.17
2018-11-29T11:33:17.299Z,34.33
2018-11-29T11:35:45.463Z,37.20
2018-11-29T11:38:13.773Z,31.68
2018-11-29T11:40:41.918Z,35.63
2018-11-29T11:43:10.083Z,38.05
2018-11-29T11:45:38.252Z,27.05
2018-11-29T11:48:07.140Z,40.45
2018-11-29T11:50:35.916Z,32.65
2018-11-29T11:53:04.134Z,39.95
2018-11-29T11:55:32.268Z,37.65
2018-11-29T11:58:00.437Z,34.23
2018-11-29T12:00:29.587Z,36.13
2018-11-29T12:03:01.312Z,36.35
2018-11-29T12:05:29.476Z,35.03
2018-11-29T12:07:57.663Z,41.35
2018-11-29T12:10:25.822Z,44.33
2018-11-29T12:12:54.087Z,38.48
2018-11-29T12:15:22.285Z,37.42
2018-11-29T12:17:50.451Z,32.60
2018-11-29T12:20:19.607Z,29.32
2018-11-29T12:22:47.866Z,39.90
2018-11-29T12:25:17.207Z,30.55
2018-11-29T12:27:45.406Z,37.83
2018-11-29T12:30:35.108Z,31.65
2018-11-29T12:33:04.299Z,28.65
2018-11-29T12:35:32.619Z,39.18
2018-11-29T12:38:00.846Z,44.77
2018-11-29T12:40:29.036Z,48.05
2018-11-29T12:42:57.190Z,37.93
2018-11-29T12:45:25.364Z,29.32
2018-11-29T12:47:53.530Z,32.60
2018-11-29T12:50:24.574Z,35.45
2018-11-29T12:52:52.834Z,31.37
2018-11-29T12:55:21.965Z,32.35
2018-11-29T12:58:04.473Z,30.97
2018-11-29T13:00:19.368Z,28.80
2018-11-29T13:02:49.514Z,29.80
2018-11-29T13:05:17.667Z,35.92
2018-11-29T13:07:45.895Z,42.35
2018-11-29T13:10:15.394Z,33.10
2018-11-29T13:12:43.598Z,32.93
2018-11-29T13:15:14.067Z,35.13
2018-11-29T13:17:42.226Z,27.07
2018-11-29T13:20:14.782Z,30.62
2018-11-29T13:22:42.985Z,28.38
2018-11-29T13:25:19.086Z,34.35
2018-11-29T13:27:47.292Z,38.10
2018-11-29T13:30:16.555Z,35.35
2018-11-29T13:32:44.868Z,30.23
2018-11-29T13:35:16.809Z,30.48
2018-11-29T13:37:54.378Z,32.48
2018-11-29T13:40:22.566Z,30.48
2018-11-29T13:42:50.746Z,31.55
2018-11-29T13:45:25.695Z,32.73
2018-11-29T13:47:53.852Z,39.40
2018-11-29T13:50:21.998Z,34.23
2018-11-29T13:52:50.176Z,39.75
2018-11-29T13:55:18.541Z,30.82
2018-11-29T13:57:47.885Z,34.77
2018-11-29T14:00:19.166Z,30.75
2018-11-29T14:02:48.605Z,31.83
2018-11-29T14:05:16.807Z,33.08
2018-11-29T14:07:44.995Z,31.20
2018-11-29T14:10:17.304Z,41.35
2018-11-29T14:12:46.263Z,31.00
2018-11-29T14:15:18.435Z,35.35
2018-11-29T14:17:46.618Z,38.30
2018-11-29T14:20:15.076Z,33.60
2018-11-29T14:22:43.282Z,35.00
2018-11-29T14:25:12.650Z,31.35
2018-11-29T14:27:41.462Z,41.55
2018-11-29T14:30:12.258Z,31.35
2018-11-29T14:32:40.420Z,40.05
2018-11-29T14:35:08.687Z,28.73
2018-11-29T14:37:36.862Z,30.65
2018-11-29T14:40:08.263Z,32.13
2018-11-29T14:42:36.418Z,27.15
2018-11-29T14:45:07.267Z,37.38
2018-11-29T14:47:35.445Z,29.20
2018-11-29T14:50:04.662Z,36.03
2018-11-29T14:52:32.818Z,36.70
2018-11-29T14:55:01.007Z,34.30
2018-11-29T14:57:29.181Z,30.97
2018-11-29T14:59:57.346Z,36.93
2018-11-29T15:02:25.516Z,40.63
2018-11-29T15:04:53.702Z,29.65
2018-11-29T15:07:21.998Z,30.92
2018-11-29T15:09:50.222Z,31.73
2018-11-29T15:12:18.399Z,24.57
2018-11-29T15:14:46.654Z,30.25
2018-11-29T15:17:14.808Z,25.97
2018-11-29T15:19:43.009Z,28.52
2018-11-29T15:22:11.243Z,24.92
2018-11-29T15:24:39.425Z,24.20
2018-11-29T15:27:07.604Z,28.23
2018-11-29T15:29:35.797Z,29.92
2018-11-29T15:32:04.340Z,27.02
2018-11-29T15:34:32.516Z,27.42
2018-11-29T15:37:00.809Z,22.73
2018-11-29T15:39:28.930Z,31.87
2018-11-29T15:41:57.095Z,21.62
2018-11-29T15:44:25.340Z,26.75
2018-11-29T15:46:53.568Z,28.70
2018-11-29T15:49:21.698Z,31.70
2018-11-29T15:51:49.887Z,22.02
2018-11-29T15:54:18.042Z,24.75
2018-11-29T15:56:46.335Z,26.75
2018-11-29T15:59:14.759Z,38.65
2018-11-29T16:01:43.124Z,31.90
2018-11-29T16:04:11.311Z,31.48
2018-11-29T16:06:39.525Z,32.73
2018-11-29T16:09:08.303Z,31.75
2018-11-29T16:11:36.559Z,29.87
2018-11-29T16:14:04.803Z,30.65
2018-11-29T16:16:32.934Z,26.97
2018-11-29T16:19:03.803Z,24.75
2018-11-29T16:21:29.271Z,26.52
2018-11-29T16:23:57.601Z,28.02
2018-11-29T16:26:25.783Z,25.32
2018-11-29T16:28:54.031Z,31.40
2018-11-29T16:31:22.255Z,22.20
2018-11-29T16:33:50.443Z,29.50
2018-11-29T16:36:18.725Z,25.15
2018-11-29T16:38:46.911Z,28.35
2018-11-29T16:41:15.083Z,29.60
2018-11-29T16:43:43.267Z,24.18
2018-11-29T16:46:11.528Z,29.02
2018-11-29T16:48:39.710Z,23.30
2018-11-29T16:51:07.862Z,27.87
2018-11-29T16:53:36.143Z,26.55
2018-11-29T16:56:04.385Z,29.63
2018-11-29T16:58:32.615Z,21.73
2018-11-29T17:01:00.799Z,21.68
2018-11-29T17:03:28.967Z,25.40
2018-11-29T17:05:57.146Z,31.42
2018-11-29T17:08:25.091Z,27.65
2018-11-29T17:10:53.291Z,25.82
2018-11-29T17:13:21.448Z,24.60
2018-11-29T17:15:49.649Z,25.12
2018-11-29T17:18:17.887Z,25.20
2018-11-29T17:20:46.063Z,28.45
2018-11-29T17:23:14.282Z,20.95
2018-11-29T17:25:42.447Z,24.63
2018-11-29T17:28:10.722Z,23.67
2018-11-29T17:30:38.878Z,21.10
2018-11-29T17:33:08.357Z,27.32
2018-11-29T17:35:36.843Z,21.42
2018-11-29T17:38:05.386Z,21.12
2018-11-29T17:40:34.104Z,23.98
2018-11-29T17:45:40.523Z,23.15
2018-11-29T17:48:09.951Z,24.80
2018-11-29T17:50:39.326Z,25.00
2018-11-29T17:53:08.269Z,25.00
2018-11-29T17:55:36.481Z,33.20
2018-11-29T17:58:12.490Z,25.55
2018-11-29T18:00:41.006Z,23.07
2018-11-29T18:03:09.343Z,33.85
2018-11-29T18:05:37.543Z,31.82
2018-11-29T18:08:05.759Z,22.22
2018-11-29T18:10:35.650Z,21.15
2018-11-29T18:13:18.157Z,17.87
2018-11-29T18:15:46.335Z,23.73
2018-11-29T18:18:14.756Z,21.77
2018-11-29T18:20:42.814Z,20.23
2018-11-29T18:23:11.114Z,22.32
2018-11-29T18:25:39.350Z,23.47
2018-11-29T18:28:08.136Z,30.95
2018-11-29T18:30:36.359Z,26.95
2018-11-29T18:33:04.777Z,19.67
2018-11-29T18:35:33.066Z,17.48
2018-11-29T18:38:01.290Z,18.87
2018-11-29T18:40:29.544Z,20.45
2018-11-29T18:42:58.962Z,18.73
2018-11-29T18:45:27.392Z,23.25
2018-11-29T18:47:55.936Z,20.85
2018-11-29T18:50:25.181Z,29.55
2018-11-29T18:52:53.674Z,47.78
2018-11-29T18:55:22.999Z,25.25
2018-11-29T18:57:51.331Z,22.00
2018-11-29T19:00:24.880Z,16.60
2018-11-29T19:02:56.962Z,18.82
2018-11-29T19:05:21.409Z,17.85
2018-11-29T19:07:49.594Z,20.90
2018-11-29T19:10:18.441Z,19.48
2018-11-29T19:13:08.118Z,24.52
2018-11-29T19:15:36.352Z,17.07
2018-11-29T19:18:04.616Z,15.85
2018-11-29T19:20:32.779Z,18.07
2018-11-29T19:23:01.195Z,37.63
2018-11-29T19:25:29.358Z,17.12
2018-11-29T19:27:57.545Z,19.75
2018-11-29T19:30:28.763Z,23.12
2018-11-29T19:33:02.870Z,22.27
2018-11-29T19:35:31.051Z,17.67
2018-11-29T19:37:59.221Z,25.48
2018-11-29T19:40:27.378Z,21.15
2018-11-29T19:42:55.567Z,21.33
2018-11-29T19:45:23.759Z,30.12
2018-11-29T19:47:51.927Z,20.92
2018-11-29T19:50:20.392Z,23.05
2018-11-29T19:52:50.071Z,24.45
2018-11-29T19:55:21.756Z,21.17
2018-11-29T19:57:50.285Z,22.27
2018-11-29T20:00:18.435Z,25.92
2018-11-29T20:02:47.348Z,18.02
2018-11-29T20:05:15.511Z,18.92
2018-11-29T20:07:43.844Z,18.48
2018-11-29T20:10:14.154Z,20.60
2018-11-29T20:12:42.694Z,19.07
2018-11-29T20:15:16.467Z,19.05
2018-11-29T20:17:44.663Z,35.60
2018-11-29T20:20:13.530Z,38.53
2018-11-29T20:22:42.083Z,21.17
2018-11-29T20:25:17.591Z,16.87
2018-11-29T20:27:45.762Z,19.25
2018-11-29T20:30:15.238Z,19.15
2018-11-29T20:32:43.432Z,60.23
2018-11-29T20:35:12.123Z,46.05
2018-11-29T20:37:40.587Z,35.05
2018-11-29T20:40:12.466Z,23.35
2018-11-29T20:42:40.614Z,19.32
2018-11-29T20:45:17.383Z,20.37
2018-11-29T20:47:45.524Z,21.23
2018-11-29T20:50:16.982Z,20.35
2018-11-29T20:52:45.739Z,17.70
2018-11-29T20:55:17.702Z,19.12
2018-11-29T20:57:45.897Z,17.30
2018-11-29T21:00:14.980Z,23.92
2018-11-29T21:02:43.257Z,20.32
2018-11-29T21:05:13.566Z,18.25
2018-11-29T21:07:43.166Z,17.37
2018-11-29T21:10:22.321Z,24.30
2018-11-29T21:12:50.791Z,20.95
2018-11-29T21:15:18.978Z,15.93
2018-11-29T21:17:47.234Z,16.37
2018-11-29T21:20:16.575Z,17.90
2018-11-29T21:22:45.942Z,16.60
2018-11-29T21:25:20.378Z,20.48
2018-11-29T21:27:49.023Z,17.62
2018-11-29T21:30:17.416Z,16.62
2018-11-29T21:32:45.972Z,21.12
2018-11-29T21:35:16.448Z,18.50
2018-11-29T21:37:44.688Z,18.48
2018-11-29T21:40:22.430Z,20.80
2018-11-29T21:42:50.699Z,25.62
2018-11-29T21:45:18.926Z,18.65
2018-11-29T21:47:47.293Z,23.05
2018-11-29T21:50:15.462Z,14.83
2018-11-29T21:52:43.896Z,19.12
2018-11-29T21:55:12.342Z,20.25
2018-11-29T21:57:40.589Z,21.80
2018-11-29T22:00:11.662Z,22.42
2018-11-29T22:02:41.780Z,17.07
2018-11-29T22:05:09.934Z,19.75
2018-11-29T22:07:38.088Z,16.70
2018-11-29T22:10:06.254Z,24.55
2018-11-29T22:12:34.408Z,19.27
2018-11-29T22:15:02.577Z,21.23
2018-11-29T22:17:30.722Z,18.48
2018-11-29T22:19:58.879Z,20.17
2018-11-29T22:22:28.396Z,17.20
2018-11-29T22:24:55.247Z,17.17
2018-11-29T22:27:23.415Z,19.50
2018-11-29T22:29:51.564Z,22.10
2018-11-29T22:32:19.726Z,23.50
2018-11-29T22:34:47.953Z,24.50
2018-11-29T22:37:16.125Z,36.40
2018-11-29T22:39:44.296Z,21.77
2018-11-29T22:42:12.523Z,21.27
2018-11-29T22:44:40.674Z,27.20
2018-11-29T22:47:08.870Z,18.98
2018-11-29T22:49:37.027Z,26.15
2018-11-29T22:52:05.409Z,20.45
2018-11-29T22:54:33.586Z,22.07
2018-11-29T22:57:01.758Z,25.72
2018-11-29T22:59:29.930Z,18.77
2018-11-29T23:01:58.159Z,22.87
2018-11-29T23:04:26.313Z,17.37
2018-11-29T23:06:54.462Z,22.75
2018-11-29T23:09:22.634Z,21.05
2018-11-29T23:11:50.825Z,20.70
2018-11-29T23:14:18.979Z,32.08
2018-11-29T23:16:47.255Z,22.60
2018-11-29T23:19:15.401Z,26.07
2018-11-29T23:21:43.539Z,22.95
2018-11-29T23:25:36.183Z,22.52
2018-11-29T23:28:05.418Z,19.87
2018-11-29T23:30:33.750Z,23.35
2018-11-29T23:33:01.919Z,22.45
2018-11-29T23:35:30.083Z,22.22
2018-11-29T23:37:58.256Z,16.05
2018-11-29T23:40:26.439Z,18.40
2018-11-29T23:42:54.592Z,19.45
2018-11-29T23:45:22.750Z,20.55
2018-11-29T23:47:50.911Z,18.23
2018-11-29T23:50:19.291Z,20.45
2018-11-29T23:52:47.491Z,22.00
2018-11-29T23:55:17.739Z,20.02
2018-11-29T23:57:45.887Z,20.45
